Sumas, WA

10:13 AM PDT on September 03, 2015 (GMT -0700)
Reese Hill Rd, Anderson Lake | | Change Station
CLOSE
Current Station
Personal Weather Station
Location: Sumas, WA
Elevation: 535 ft
Nearby Weather Stations

Elev 535 ft 48.97 °N, 122.21 °W | Updated 27 days ago

Rain
Rain
54 °F
Feels Like 54 °F
N
6
Wind Variable Wind from South
Gusts 10 mph

Today
High -- | Low -- °F
--% Chance of Precip.
Yesterday
High -- | Low -- °F
Precip. -- in
6:28 AM 7:47 PM
Waning Gibbous, 68% visible
Pressure 30.03 in
Visibility 5.0 miles
Clouds Scattered Clouds 2700 ft
Mostly Cloudy 3300 ft
Overcast 6500 ft
Dew Point 49 °F
Humidity 86%
Rainfall in
Snow Depth Not available.
UV 1 out of 12
Pollen .50 out of 12
Air Quality Not available.
Flu Activity Not available.
METAR KBLI 031653Z 17008KT 5SM R16/4500VP6000FT -RA SCT027 BKN033 OVC065 13/10 A3000 RMK AO2 RAB50 SLP167 P0006 T01280100
Pressure 30.03 in
Visibility 5.0 miles
Clouds Scattered Clouds 2700 ft
Mostly Cloudy 3300 ft
Overcast 6500 ft
Dew Point 49 °F
Humidity 86%
Rainfall in
Snow Depth Not available.
UV 1 out of 12
Pollen .50 out of 12
Air Quality Not available.
Flu Activity Not available.
METAR KBLI 031653Z 17008KT 5SM R16/4500VP6000FT -RA SCT027 BKN033 OVC065 13/10 A3000 RMK AO2 RAB50 SLP167 P0006 T01280100

10-Day Weather Forecast

×

Almanac

Astronomy

Sep. 03, 2015 Rise Set
Actual Time
Civil Twilight
Nautical Twilight
Astronomical Twilight
Moon
Length of Visible Light
Length of Day
Tomorrow will be .
, % of the Moon is Illuminated

Today's Extremes

State Highs State Lows

Community

WunderPhotos

Upload Photos

1,851,990 photos uploaded!

WunderBlogs® & News

Nearby

Air Quality

  Air Quality AQ Index Pollutant
Not available.

Snow Depth

Station Depth Elevation

Earthquake Activity

City Distance Mag. Time & Date
Minimum magnitude displayed is 2.5.

Coastal Water Temperatures

Place Temperature

Stations

Nearby Weather Stations

Station Location Temp. Windchill Dew Point Humidity Wind Precip. Elev Updated Type